ADDS METAR Data INFO
IDs: Format: Raw Decoded Include TAF

Data at: 0919 UTC 13 Dec 2017

KIFP 130855Z AUTO 02014KT 10SM CLR 18/M17 A3007 RMK AO2
KIFP 130835Z AUTO 01013KT 10SM CLR 18/M18 A3008 RMK AO2
KIFP 130815Z AUTO 36012KT 10SM CLR 17/M17 A3008 RMK AO2
KIFP 130755Z AUTO 01010G15KT 10SM CLR 18/M17 A3009 RMK AO2
KIFP 130735Z AUTO 36008KT 10SM CLR 16/M11 A3009 RMK AO2
KIFP 130715Z AUTO 00000KT 10SM CLR 15/M09 A3010 RMK AO2
KIFP 130655Z AUTO 35007KT 10SM CLR 15/M09 A3010 RMK AO2
KIFP 130635Z AUTO 05005KT 10SM CLR 15/M11 A3010 RMK AO2
KIFP 130615Z AUTO 00000KT 10SM CLR 15/M12 A3011 RMK AO2
KIFP 130555Z AUTO 34007KT 10SM CLR 16/M11 A3011 RMK AO2
KIFP 130535Z AUTO 33003KT 10SM CLR 16/M11 A3011 RMK AO2
KIFP 130515Z AUTO 35009KT 10SM CLR 17/M14 A3010 RMK AO2
KIFP 130455Z AUTO 35006KT 10SM CLR 17/M13 A3011 RMK AO2
KIFP 130435Z AUTO 36006KT 10SM CLR 18/M17 A3011 RMK AO2
KIFP 130415Z AUTO 01009KT 10SM CLR 18/M18 A3011 RMK AO2
KIFP 130355Z AUTO 01012KT 10SM CLR 18/M17 A3011 RMK AO2
KIFP 130335Z AUTO 01013KT 10SM CLR 19/M17 A3011 RMK AO2
KIFP 130315Z AUTO 01012KT 10SM CLR 19/M17 A3011 RMK AO2
KIFP 130255Z AUTO 02012KT 10SM CLR 19/M17 A3012 RMK AO2
KIFP 130235Z AUTO 01013KT 10SM CLR 20/M17 A3011 RMK AO2
KIFP 130215Z AUTO 01014KT 10SM CLR 20/M17 A3011 RMK AO2
KIFP 130155Z AUTO 02016KT 10SM CLR 20/M16 A3011 RMK AO2
KIFP 130135Z AUTO 02017KT 10SM CLR 21/M17 A3011 RMK AO2
KIFP 130115Z AUTO 17.83333318KT 10SM CLR 21/M15 A3011 RMK AO2
KIFP 130055Z 02014KT 10SM CLR 21/M16 A3011 RMK AO2
KIFP 130035Z 02012KT 10SM CLR 21/M17 A3011 RMK AO2
KIFP 130015Z 01015KT 10SM CLR 22/M18 A3011 RMK AO2
KIFP 122355Z 01015KT 10SM CLR 23/M18 A3011 RMK AO2
KIFP 122335Z 01013G18KT 10SM CLR 23/M18 A3012 RMK AO2
KIFP 122315Z 36016G22KT 10SM CLR 23/M18 A3012 RMK AO2
KIFP 122255Z 01018G23KT 10SM CLR 23/M19 A3012 RMK AO2
KIFP 122235Z 36015G23KT 10SM CLR 23/M18 A3012 RMK AO2
KIFP 122215Z 01019KT 10SM CLR 23/M19 A3013 RMK AO2
KIFP 122155Z 35020G28KT 10SM CLR 23/M19 A3013 RMK AO2
KIFP 122135Z 36021G28KT 10SM CLR 23/M19 A3014 RMK AO2
KIFP 122115Z 35024KT 10SM CLR 22/M18 A3014 RMK AO2
KIFP 122055Z 36021G30KT 10SM CLR 22/M18 A3016 RMK AO2
KIFP 122035Z 01021KT 10SM CLR 22/M18 A3017 RMK AO2
KIFP 122015Z 36021G29KT 10SM CLR 22/M18 A3018 RMK AO2
KIFP 121955Z 36022G32KT 10SM CLR 21/M19 A3019 RMK AO2
KIFP 121935Z 36018G28KT 10SM CLR 21/M19 A3022 RMK AO2
KIFP 121915Z 01019G30KT 10SM CLR 21/M19 A3023 RMK AO2
KIFP 121855Z 01022G29KT 10SM CLR 20/M19 A3024 RMK AO2
KIFP 121835Z 01021G28KT 10SM CLR 20/M19 A3025 RMK AO2
KIFP 121815Z 01020G28KT 10SM CLR 19/M19 A3026 RMK AO2
KIFP 121755Z 01022G30KT 10SM CLR 18/M18 A3028 RMK AO2
KIFP 121735Z 01021G30KT 10SM CLR 17/M17 A3028 RMK AO2
KIFP 121715Z 01023G32KT 10SM CLR 17/M17 A3028 RMK AO2
KIFP 121655Z 02025G32KT 10SM CLR 16/M17 A3027 RMK AO2
KIFP 121635Z 01025G32KT 10SM CLR 16/M17 A3027 RMK AO2
KIFP 121615Z 02028KT 10SM CLR 15/M17 A3026 RMK AO2
KIFP 121555Z 02027G35KT 10SM CLR 15/M18 A3026 RMK AO2
KIFP 121535Z 02022G27KT 10SM CLR 15/M19 A3027 RMK AO2
KIFP 121515Z 02024KT 10SM CLR 14/M16 A3027 RMK AO2
KIFP 121455Z 02025KT 10SM CLR 14/M17 A3027 RMK AO2
KIFP 121435Z AUTO 02025G30KT 10SM CLR 14/M16 A3026 RMK AO2
KIFP 121415Z AUTO 02022G30KT 10SM CLR 14/M15 A3026 RMK AO2
KIFP 121355Z AUTO 02025G31KT 10SM CLR 15/M17 A3025 RMK AO2
KIFP 121335Z AUTO 02026G34KT 10SM CLR 14/M15 A3025 RMK AO2
KIFP 121315Z AUTO 03022G28KT 10SM CLR 14/M16 A3025 RMK AO2
KIFP 121255Z AUTO 01023G29KT 10SM CLR 15/M16 A3025 RMK AO2
KIFP 121235Z AUTO 01022G28KT 10SM CLR 15/M17 A3025 RMK AO2
KIFP 121215Z AUTO 01021G27KT 10SM CLR 15/M16 A3026 RMK AO2
KIFP 121155Z AUTO 01019G26KT 10SM CLR 15/M14 A3026 RMK AO2
KIFP 121135Z AUTO 01024G30KT 10SM CLR 16/M17 A3025 RMK AO2
KIFP 121115Z AUTO 01024G29KT 10SM CLR 16/M16 A3025 RMK AO2
KIFP 121055Z AUTO 01020G30KT 10SM CLR 16/M16 A3026 RMK AO2
KIFP 121035Z AUTO 01023G29KT 10SM CLR 16/M16 A3025 RMK AO2
KIFP 121015Z AUTO 01024G31KT 10SM CLR 16/M16 A3026 RMK AO2
KIFP 120955Z AUTO 02024KT 10SM CLR 16/M17 A3026 RMK AO2
KIFP 120935Z AUTO 01020G25KT 10SM CLR 16/M17 A3027 RMK AO2
KIFP 120915Z AUTO 02021G26KT 10SM CLR 17/M17 A3026 RMK AO2
KIFP 120855Z AUTO 03021G28KT 10SM CLR 17/M18 A3026 RMK AO2
KIFP 120835Z AUTO 02019KT 10SM CLR 17/M18 A3026 RMK AO2
KIFP 120815Z AUTO 02017G23KT 10SM CLR 17/M19 A3027 RMK AO2
KIFP 120755Z AUTO 01015G20KT 10SM CLR 17/M19 A3027 RMK AO2
KIFP 120735Z AUTO 01012G19KT 10SM CLR 17/M19 A3028 RMK AO2
KIFP 120715Z AUTO 01016G22KT 10SM CLR 18/M20 A3027 RMK AO2
KIFP 120655Z AUTO 01012G19KT 10SM CLR 18/M20 A3028 RMK AO2
KIFP 120635Z AUTO 01012G19KT 10SM CLR 18/M20 A3027 RMK AO2
KIFP 120615Z AUTO 01012KT 10SM CLR 18/M20 A3028 RMK AO2
KIFP 120555Z AUTO 36015KT 10SM CLR 17/M20 A3027 RMK AO2
KIFP 120535Z AUTO 36011G17KT 10SM CLR 17/M19 A3027 RMK AO2
KIFP 120515Z AUTO 01016KT 10SM CLR 18/M19 A3027 RMK AO2
KIFP 120455Z AUTO 01017KT 10SM CLR 18/M19 A3026 RMK AO2
KIFP 120435Z AUTO 01019KT 10SM CLR 18/M19 A3026 RMK AO2
KIFP 120415Z AUTO 02017G22KT 10SM CLR 18/M19 A3025 RMK AO2
KIFP 120355Z AUTO 02013G19KT 10SM CLR 18/M19 A3026 RMK AO2
KIFP 120335Z AUTO 03011G21KT 10SM CLR 18/M19 A3026 RMK AO2
KIFP 120315Z AUTO 02012KT 10SM CLR 18/M18 A3026 RMK AO2
KIFP 120255Z AUTO 02016G21KT 10SM CLR 18/M17 A3025 RMK AO2
KIFP 120235Z AUTO 03014KT 10SM CLR 18/M17 A3026 RMK AO2
KIFP 120215Z AUTO 02013KT 10SM CLR 18/M17 A3025 RMK AO2
KIFP 120155Z AUTO 02015G22KT 10SM CLR 19/M16 A3025 RMK AO2
KIFP 120135Z AUTO 02017KT 10SM CLR 19/M16 A3024 RMK AO2
KIFP 120115Z AUTO 02017KT 10SM CLR 19/M16 A3024 RMK AO2
KIFP 120055Z 01014G19KT 10SM CLR 19/M16 A3024 RMK AO2
KIFP 120035Z 01015KT 10SM CLR 19/M17 A3023 RMK AO2
KIFP 120015Z 01015G21KT 10SM CLR 20/M18 A3023 RMK AO2
KIFP 112355Z 36016KT 10SM CLR 20/M18 A3023 RMK AO2
KIFP 112335Z 01015G22KT 10SM CLR 20/M18 A3023 RMK AO2
KIFP 112315Z 01021G27KT 10SM CLR 20/M18 A3022 RMK AO2
KIFP 112255Z 36020G28KT 10SM CLR 20/M18 A3022 RMK AO2
KIFP 112235Z 36020G28KT 10SM CLR 20/M18 A3022 RMK AO2
KIFP 112215Z 35017G24KT 10SM CLR 20/M18 A3023 RMK AO2
KIFP 112155Z 36017G28KT 10SM CLR 20/M17 A3023 RMK AO2
KIFP 112135Z 35023G28KT 10SM CLR 20/M17 A3023 RMK AO2